createdAt,value
2018-05-16T00:01:10.149Z,100442.46
2018-05-16T00:03:38.509Z,100440.73
2018-05-16T00:06:07.636Z,100440.87
2018-05-16T00:08:36.161Z,100449.77
2018-05-16T00:11:05.489Z,100450.67
2018-05-16T00:13:34.699Z,100442.25
2018-05-16T00:16:03.057Z,100448.53
2018-05-16T00:18:32.151Z,100441.03
2018-05-16T00:21:01.392Z,100435.95
2018-05-16T00:23:29.833Z,100435.84
2018-05-16T00:25:59.307Z,100430.66
2018-05-16T00:28:28.064Z,100430.59
2018-05-16T00:30:56.461Z,100429.47
2018-05-16T00:33:25.693Z,100432.89
2018-05-16T00:35:54.830Z,100434.30
2018-05-16T00:38:23.167Z,100439.14
2018-05-16T00:40:53.045Z,100430.00
2018-05-16T00:43:21.395Z,100431.83
2018-05-16T00:45:49.808Z,100436.28
2018-05-16T00:48:18.151Z,100445.98
2018-05-16T00:51:04.240Z,100442.00
2018-05-16T00:53:32.579Z,100445.10
2018-05-16T00:56:00.989Z,100443.76
2018-05-16T00:58:29.352Z,100440.16
2018-05-16T01:00:58.455Z,100434.94
2018-05-16T01:03:26.833Z,100437.66
2018-05-16T01:05:55.171Z,100429.22
2018-05-16T01:08:23.591Z,100426.30
2018-05-16T01:10:51.923Z,100427.50
2018-05-16T01:13:20.280Z,100424.72
2018-05-16T01:15:48.647Z,100427.41
2018-05-16T01:18:17.027Z,100419.27
2018-05-16T01:20:45.806Z,100424.06
2018-05-16T01:23:14.142Z,100420.86
2018-05-16T01:25:42.511Z,100419.45
2018-05-16T01:28:10.857Z,100417.17
2018-05-16T01:30:39.240Z,100420.27
2018-05-16T01:33:07.588Z,100415.27
2018-05-16T01:35:35.931Z,100409.74
2018-05-16T01:38:04.399Z,100410.84
2018-05-16T01:40:32.769Z,100411.58
2018-05-16T01:43:01.143Z,100411.02
2018-05-16T01:45:29.536Z,100408.58
2018-05-16T01:50:32.486Z,100415.31
2018-05-16T01:53:00.810Z,100417.92
2018-05-16T01:55:29.187Z,100414.20
2018-05-16T01:57:57.533Z,100414.20
2018-05-16T02:00:25.914Z,100411.18
2018-05-16T02:02:54.282Z,100412.82
2018-05-16T02:05:22.647Z,100414.39
2018-05-16T02:07:50.991Z,100415.78
2018-05-16T02:10:19.751Z,100413.73
2018-05-16T02:12:48.064Z,100405.34
2018-05-16T02:15:17.171Z,100411.20
2018-05-16T02:17:45.539Z,100403.20
2018-05-16T02:20:14.661Z,100404.80
2018-05-16T02:22:43.018Z,100403.10
2018-05-16T02:25:12.127Z,100412.61
2018-05-16T02:27:40.496Z,100410.91
2018-05-16T02:30:09.609Z,100403.36
2018-05-16T02:32:38.000Z,100393.86
2018-05-16T02:35:07.381Z,100391.62
2018-05-16T02:37:36.275Z,100391.14
2018-05-16T02:40:04.607Z,100388.84
2018-05-16T02:42:32.973Z,100382.27
2018-05-16T02:45:01.322Z,100399.04
2018-05-16T02:47:29.727Z,100403.44
2018-05-16T02:49:58.791Z,100400.34
2018-05-16T02:52:27.110Z,100399.27
2018-05-16T02:54:55.481Z,100399.23
2018-05-16T02:57:23.871Z,100399.93
2018-05-16T02:59:52.247Z,100406.67
2018-05-16T03:02:20.618Z,100404.39
2018-05-16T03:04:48.977Z,100395.99
2018-05-16T03:07:17.276Z,100392.97
2018-05-16T03:09:45.618Z,100390.22
2018-05-16T03:12:13.987Z,100397.66
2018-05-16T03:14:42.344Z,100400.41
2018-05-16T03:17:10.686Z,100401.64
2018-05-16T03:19:39.067Z,100409.31
2018-05-16T03:22:07.473Z,100408.37
2018-05-16T03:24:36.599Z,100416.62
2018-05-16T03:27:04.967Z,100409.33
2018-05-16T03:29:33.291Z,100412.33
2018-05-16T03:32:01.684Z,100414.88
2018-05-16T03:34:30.787Z,100408.60
2018-05-16T03:36:59.227Z,100408.91
2018-05-16T03:39:28.034Z,100406.13
2018-05-16T03:41:56.419Z,100405.58
2018-05-16T03:44:25.579Z,100397.91
2018-05-16T03:46:54.525Z,100392.61
2018-05-16T03:49:23.638Z,100391.55
2018-05-16T03:51:52.038Z,100384.66
2018-05-16T03:54:20.417Z,100382.47
2018-05-16T03:56:48.803Z,100361.17
2018-05-16T03:59:35.104Z,100381.97
2018-05-16T04:02:21.199Z,100388.08
2018-05-16T04:04:49.467Z,100399.52
2018-05-16T04:07:17.822Z,100408.89
2018-05-16T04:09:46.261Z,100411.44
2018-05-16T04:12:14.839Z,100405.98
2018-05-16T04:14:43.210Z,100409.73
2018-05-16T04:17:11.647Z,100411.08
2018-05-16T04:19:40.039Z,100406.86
2018-05-16T04:22:08.437Z,100402.88
2018-05-16T04:24:36.875Z,100395.65
2018-05-16T04:27:05.239Z,100399.56
2018-05-16T04:29:34.372Z,100395.08
2018-05-16T04:32:02.754Z,100400.50
2018-05-16T04:34:31.124Z,100404.69
2018-05-16T04:36:59.453Z,100404.66
2018-05-16T04:39:27.803Z,100403.96
2018-05-16T04:41:56.137Z,100395.34
2018-05-16T04:44:24.517Z,100400.68
2018-05-16T04:46:52.863Z,100406.41
2018-05-16T04:49:21.243Z,100407.01
2018-05-16T04:51:49.634Z,100410.05
2018-05-16T04:54:18.774Z,100403.00
2018-05-16T04:56:47.170Z,100398.41
2018-05-16T04:59:15.554Z,100403.45
2018-05-16T05:01:43.900Z,100409.77
2018-05-16T05:04:12.265Z,100407.61
2018-05-16T05:06:40.626Z,100409.27
2018-05-16T05:09:09.781Z,100414.73
2018-05-16T05:11:38.166Z,100419.33
2018-05-16T05:14:06.501Z,100409.42
2018-05-16T05:16:34.876Z,100413.59
2018-05-16T05:19:03.245Z,100405.02
2018-05-16T05:21:31.574Z,100396.21
2018-05-16T05:23:59.943Z,100393.13
2018-05-16T05:26:28.277Z,100388.88
2018-05-16T05:28:56.636Z,100381.97
2018-05-16T05:31:25.754Z,100384.53
2018-05-16T05:33:54.124Z,100384.36
2018-05-16T05:36:23.651Z,100380.36
2018-05-16T05:38:52.790Z,100384.33
2018-05-16T05:41:21.171Z,100386.41
2018-05-16T05:43:49.513Z,100374.45
2018-05-16T05:46:17.854Z,100376.39
2018-05-16T05:48:47.026Z,100377.91
2018-05-16T05:51:15.382Z,100376.89
2018-05-16T05:53:43.839Z,100390.75
2018-05-16T05:56:12.227Z,100386.00
2018-05-16T05:58:41.356Z,100387.09
2018-05-16T06:01:09.704Z,100385.03
2018-05-16T06:03:38.074Z,100385.09
2018-05-16T06:06:06.438Z,100386.08
2018-05-16T06:08:34.815Z,100398.46
2018-05-16T06:11:03.201Z,100396.32
2018-05-16T06:13:32.301Z,100394.66
2018-05-16T06:16:03.528Z,100389.26
2018-05-16T06:18:33.878Z,100395.91
2018-05-16T06:21:02.202Z,100391.75
2018-05-16T06:23:31.343Z,100386.80
2018-05-16T06:25:59.693Z,100385.48
2018-05-16T06:28:28.069Z,100382.72
2018-05-16T06:30:56.463Z,100386.42
2018-05-16T06:33:24.795Z,100383.66
2018-05-16T06:35:53.164Z,100389.65
2018-05-16T06:38:21.485Z,100390.43
2018-05-16T06:40:49.881Z,100387.49
2018-05-16T06:43:18.228Z,100390.89
2018-05-16T06:45:47.380Z,100392.11
2018-05-16T06:48:15.823Z,100400.91
2018-05-16T06:50:44.177Z,100399.06
2018-05-16T06:53:13.321Z,100402.45
2018-05-16T06:55:41.659Z,100402.48
2018-05-16T06:58:10.817Z,100404.09
2018-05-16T07:00:39.141Z,100404.19
2018-05-16T07:03:07.499Z,100397.47
2018-05-16T07:05:36.603Z,100400.75
2018-05-16T07:08:05.749Z,100395.61
2018-05-16T07:10:34.106Z,100393.95
2018-05-16T07:13:02.497Z,100397.55
2018-05-16T07:15:31.236Z,100399.72
2018-05-16T07:18:00.374Z,100393.78
2018-05-16T07:20:29.462Z,100396.84
2018-05-16T07:22:57.793Z,100394.61
2018-05-16T07:25:26.173Z,100397.44
2018-05-16T07:27:54.532Z,100384.05
2018-05-16T07:30:22.902Z,100394.83
2018-05-16T07:32:51.269Z,100389.76
2018-05-16T07:35:19.640Z,100387.70
2018-05-16T07:37:48.763Z,100392.66
2018-05-16T07:40:17.151Z,100387.25
2018-05-16T07:42:45.508Z,100389.53
2018-05-16T07:45:13.911Z,100391.73
2018-05-16T07:47:42.295Z,100394.02
2018-05-16T07:50:10.620Z,100393.44
2018-05-16T07:52:39.000Z,100397.08
2018-05-16T07:55:07.346Z,100394.15
2018-05-16T07:57:35.717Z,100405.14
2018-05-16T08:00:04.849Z,100405.70
2018-05-16T08:02:33.187Z,100402.24
2018-05-16T08:05:02.322Z,100406.84
2018-05-16T08:07:30.689Z,100403.16
2018-05-16T08:09:59.058Z,100400.69
2018-05-16T08:12:27.447Z,100391.27
2018-05-16T08:14:55.801Z,100391.17
2018-05-16T08:17:24.165Z,100390.23
2018-05-16T08:19:53.290Z,100388.84
2018-05-16T08:22:21.638Z,100384.36
2018-05-16T08:24:50.356Z,100391.91
2018-05-16T08:27:18.736Z,100388.03
2018-05-16T08:29:47.136Z,100385.58
2018-05-16T08:32:16.280Z,100381.67
2018-05-16T08:34:45.075Z,100389.25
2018-05-16T08:37:14.184Z,100391.80
2018-05-16T08:39:42.577Z,100396.28
2018-05-16T08:42:10.957Z,100386.63
2018-05-16T08:44:39.775Z,100395.54
2018-05-16T08:47:08.154Z,100384.06
2018-05-16T08:49:36.555Z,100390.14
2018-05-16T08:52:06.222Z,100394.05
2018-05-16T08:54:35.531Z,100395.17
2018-05-16T08:57:06.585Z,100395.89
2018-05-16T08:59:35.486Z,100398.81
2018-05-16T09:02:05.829Z,100408.94
2018-05-16T09:04:36.572Z,100397.98
2018-05-16T09:07:05.655Z,100409.20
2018-05-16T09:09:35.164Z,100403.70
2018-05-16T09:12:03.731Z,100399.42
2018-05-16T09:14:33.884Z,100400.61
2018-05-16T09:17:02.248Z,100399.26
2018-05-16T09:19:32.035Z,100400.56
2018-05-16T09:22:01.226Z,100404.00
2018-05-16T09:24:30.117Z,100405.93
2018-05-16T09:26:59.598Z,100403.23
2018-05-16T09:29:28.383Z,100404.30
2018-05-16T09:31:57.528Z,100402.34
2018-05-16T09:34:26.871Z,100406.89
2018-05-16T09:36:55.256Z,100408.08
2018-05-16T09:39:23.770Z,100400.97
2018-05-16T09:41:52.176Z,100406.71
2018-05-16T09:44:20.579Z,100408.52
2018-05-16T09:46:48.946Z,100410.50
2018-05-16T09:49:17.330Z,100411.22
2018-05-16T09:51:45.759Z,100416.73
2018-05-16T09:54:14.324Z,100418.27
2018-05-16T09:56:43.380Z,100414.92
2018-05-16T09:59:12.384Z,100415.41
2018-05-16T10:01:42.907Z,100410.59
2018-05-16T10:04:13.006Z,100409.44
2018-05-16T10:06:42.168Z,100413.02
2018-05-16T10:09:10.518Z,100408.58
2018-05-16T10:11:39.316Z,100405.16
2018-05-16T10:14:07.663Z,100408.97
2018-05-16T10:16:36.109Z,100410.14
2018-05-16T10:19:04.571Z,100408.16
2018-05-16T10:21:33.001Z,100410.31
2018-05-16T10:24:01.537Z,100400.92
2018-05-16T10:26:30.792Z,100400.54
2018-05-16T10:28:59.358Z,100401.97
2018-05-16T10:31:27.821Z,100400.27
2018-05-16T10:33:56.943Z,100397.52
2018-05-16T10:36:25.328Z,100399.23
2018-05-16T10:38:53.732Z,100396.18
2018-05-16T10:41:22.203Z,100394.02
2018-05-16T10:43:51.160Z,100393.13
2018-05-16T10:46:20.461Z,100392.00
2018-05-16T10:48:50.266Z,100401.28
2018-05-16T10:51:18.611Z,100407.78
2018-05-16T10:53:47.147Z,100408.14
2018-05-16T10:56:16.364Z,100399.92
2018-05-16T10:58:45.395Z,100396.11
2018-05-16T11:01:13.776Z,100389.05
2018-05-16T11:03:43.024Z,100383.53
2018-05-16T11:06:11.482Z,100388.74
2018-05-16T11:08:39.835Z,100382.41
2018-05-16T11:11:08.980Z,100381.90
2018-05-16T11:13:37.972Z,100381.84
2018-05-16T11:16:06.708Z,100381.44
2018-05-16T11:18:35.950Z,100375.80
2018-05-16T11:21:04.834Z,100386.47
2018-05-16T11:23:33.256Z,100382.38
2018-05-16T11:26:01.612Z,100378.80
2018-05-16T11:28:31.000Z,100372.44
2018-05-16T11:31:00.555Z,100374.64
2018-05-16T11:33:29.147Z,100369.25
2018-05-16T11:35:57.572Z,100365.38
2018-05-16T11:38:27.017Z,100363.48
2018-05-16T11:40:55.357Z,100359.66
2018-05-16T11:43:23.837Z,100368.44
2018-05-16T11:45:52.736Z,100361.32
2018-05-16T11:48:21.151Z,100359.95
2018-05-16T11:50:50.079Z,100355.79
2018-05-16T11:53:18.423Z,100353.30
2018-05-16T11:55:47.771Z,100354.09
2018-05-16T11:58:17.444Z,100357.91
2018-05-16T12:00:46.631Z,100362.73
2018-05-16T12:03:15.012Z,100351.23
2018-05-16T12:05:44.161Z,100354.52
2018-05-16T12:08:27.979Z,100355.14
2018-05-16T12:10:56.387Z,100353.81
2018-05-16T12:13:24.725Z,100346.33
2018-05-16T12:15:53.883Z,100343.13
2018-05-16T12:18:22.259Z,100342.59
2018-05-16T12:20:50.643Z,100334.91
2018-05-16T12:23:19.040Z,100327.80
2018-05-16T12:25:48.195Z,100340.70
2018-05-16T12:28:16.538Z,100352.52
2018-05-16T12:30:44.975Z,100362.13
2018-05-16T12:33:13.289Z,100366.35
2018-05-16T12:35:42.467Z,100367.45
2018-05-16T12:38:11.625Z,100362.86
2018-05-16T12:40:40.015Z,100359.25
2018-05-16T12:43:18.286Z,100361.12
2018-05-16T12:45:46.703Z,100365.91
2018-05-16T12:48:15.877Z,100387.41
2018-05-16T12:50:44.276Z,100396.85
2018-05-16T12:53:12.641Z,100393.68
2018-05-16T12:55:41.276Z,100388.86
2018-05-16T12:58:09.796Z,100394.60
2018-05-16T13:00:38.143Z,100398.87
2018-05-16T13:03:07.558Z,100415.06
2018-05-16T13:05:35.951Z,100417.97
2018-05-16T13:08:04.361Z,100423.55
2018-05-16T13:10:32.787Z,100422.69
2018-05-16T13:13:01.245Z,100421.34
2018-05-16T13:15:29.707Z,100419.19
2018-05-16T13:17:58.229Z,100403.21
2018-05-16T13:20:26.496Z,100397.30
2018-05-16T13:22:55.723Z,100384.58
2018-05-16T13:25:24.246Z,100384.05
2018-05-16T13:27:52.782Z,100388.25
2018-05-16T13:30:21.147Z,100392.97
2018-05-16T13:32:50.315Z,100390.54
2018-05-16T13:35:18.726Z,100383.19
2018-05-16T13:37:47.061Z,100377.15
2018-05-16T13:40:15.454Z,100370.14
2018-05-16T13:42:43.810Z,100356.66
2018-05-16T13:45:12.214Z,100356.98
2018-05-16T13:47:40.606Z,100348.89
2018-05-16T13:50:10.165Z,100354.38
2018-05-16T13:52:38.649Z,100359.98
2018-05-16T13:55:07.045Z,100354.30
2018-05-16T13:57:36.193Z,100353.58
2018-05-16T14:00:04.724Z,100354.14
2018-05-16T14:02:33.106Z,100357.08
2018-05-16T14:05:01.473Z,100355.11
2018-05-16T14:07:29.897Z,100353.19
2018-05-16T14:09:58.364Z,100351.03
2018-05-16T14:12:26.859Z,100347.97
2018-05-16T14:14:55.289Z,100351.16
2018-05-16T14:17:23.675Z,100351.61
2018-05-16T14:19:52.066Z,100361.56
2018-05-16T14:22:20.413Z,100376.19
2018-05-16T14:24:48.808Z,100378.58
2018-05-16T14:27:17.151Z,100398.12
2018-05-16T14:29:45.591Z,100401.14
2018-05-16T14:32:14.794Z,100388.79
2018-05-16T14:34:43.192Z,100394.56
2018-05-16T14:37:15.315Z,100389.45
2018-05-16T14:39:44.613Z,100386.83
2018-05-16T14:42:13.163Z,100392.17
2018-05-16T14:44:41.617Z,100396.06
2018-05-16T14:47:10.178Z,100390.59
2018-05-16T14:49:40.135Z,100394.57
2018-05-16T14:52:08.526Z,100395.42
2018-05-16T14:54:37.917Z,100401.87
2018-05-16T14:57:06.336Z,100401.27
2018-05-16T14:59:34.858Z,100399.07
2018-05-16T15:02:08.083Z,100394.84
2018-05-16T15:04:37.136Z,100390.80
2018-05-16T15:07:05.575Z,100384.73
2018-05-16T15:09:33.988Z,100384.64
2018-05-16T15:12:03.164Z,100369.86
2018-05-16T15:14:31.476Z,100377.19
2018-05-16T15:17:00.724Z,100380.28
2018-05-16T15:19:30.410Z,100373.52
2018-05-16T15:21:59.983Z,100367.48
2018-05-16T15:24:29.280Z,100363.44
2018-05-16T15:26:58.501Z,100358.45
2018-05-16T15:29:26.927Z,100361.52
2018-05-16T15:31:55.272Z,100370.34
2018-05-16T15:34:23.722Z,100367.03
2018-05-16T15:36:52.152Z,100357.91
2018-05-16T15:39:20.571Z,100360.20
2018-05-16T15:41:52.140Z,100364.26
2018-05-16T15:44:20.741Z,100366.71
2018-05-16T15:46:49.206Z,100373.53
2018-05-16T15:49:17.704Z,100377.41
2018-05-16T15:51:51.053Z,100355.48
2018-05-16T15:54:22.767Z,100386.91
2018-05-16T15:56:53.665Z,100393.37
2018-05-16T16:02:01.236Z,100409.02
2018-05-16T16:04:29.943Z,100410.74
2018-05-16T16:06:59.038Z,100408.42
2018-05-16T16:09:28.199Z,100407.09
2018-05-16T16:11:59.378Z,100406.50
2018-05-16T16:14:28.573Z,100402.69
2018-05-16T16:16:57.229Z,100394.39
2018-05-16T16:19:26.926Z,100395.81
2018-05-16T16:21:55.497Z,100403.02
2018-05-16T16:24:25.012Z,100406.41
2018-05-16T16:26:53.438Z,100412.30
2018-05-16T16:29:23.418Z,100406.45
2018-05-16T16:31:53.996Z,100412.95
2018-05-16T16:34:22.434Z,100407.94
2018-05-16T16:36:55.449Z,100398.06
2018-05-16T16:39:25.955Z,100399.63
2018-05-16T16:42:04.354Z,100184.33
2018-05-16T16:44:33.309Z,100399.88
2018-05-16T16:47:04.679Z,100391.28
2018-05-16T16:49:35.530Z,100391.55
2018-05-16T16:55:16.576Z,100388.31
2018-05-16T16:57:45.142Z,100386.27
2018-05-16T17:00:13.759Z,100378.72
2018-05-16T17:02:43.140Z,100372.63
2018-05-16T17:05:12.016Z,100363.53
2018-05-16T17:07:45.172Z,100366.30
2018-05-16T17:10:13.653Z,100365.64
2018-05-16T17:12:42.067Z,100365.56
2018-05-16T17:15:11.396Z,100362.41
2018-05-16T17:17:39.757Z,100366.27
2018-05-16T17:20:08.272Z,100347.48
2018-05-16T17:22:37.055Z,100360.56
2018-05-16T17:25:05.492Z,100347.45
2018-05-16T17:27:34.775Z,100348.50
2018-05-16T17:30:04.215Z,100343.89
2018-05-16T17:32:33.544Z,100346.76
2018-05-16T17:35:07.480Z,100343.38
2018-05-16T17:37:35.902Z,100347.36
2018-05-16T17:40:05.856Z,100344.04
2018-05-16T17:42:44.045Z,100342.31
2018-05-16T17:45:13.578Z,100334.53
2018-05-16T17:47:43.147Z,100322.36
2018-05-16T17:50:12.561Z,100334.09
2018-05-16T17:52:43.548Z,100336.69
2018-05-16T17:55:15.693Z,100334.55
2018-05-16T17:57:44.538Z,100331.80
2018-05-16T18:00:15.440Z,100343.28
2018-05-16T18:02:44.636Z,100341.52
2018-05-16T18:05:14.425Z,100338.06
2018-05-16T18:07:43.533Z,100340.58
2018-05-16T18:10:12.364Z,100342.19
2018-05-16T18:12:41.513Z,100339.55
2018-05-16T18:15:28.365Z,100339.92
2018-05-16T18:17:59.351Z,100343.19
2018-05-16T18:20:31.510Z,100342.06
2018-05-16T18:23:00.440Z,100345.04
2018-05-16T18:25:28.888Z,100352.59
2018-05-16T18:27:58.983Z,100351.44
2018-05-16T18:30:27.327Z,100354.66
2018-05-16T18:32:58.882Z,100351.19
2018-05-16T18:35:27.364Z,100359.42
2018-05-16T18:37:56.601Z,100360.95
2018-05-16T18:40:25.027Z,100365.66
2018-05-16T18:42:53.477Z,100361.67
2018-05-16T18:45:21.952Z,100347.77
2018-05-16T18:47:52.925Z,100390.80
2018-05-16T18:50:23.509Z,100388.05
2018-05-16T18:52:53.097Z,100393.59
2018-05-16T18:55:21.722Z,100390.45
2018-05-16T18:57:51.101Z,100390.23
2018-05-16T19:00:20.362Z,100390.95
2018-05-16T19:02:50.218Z,100390.70
2018-05-16T19:05:19.626Z,100393.05
2018-05-16T19:07:48.383Z,100396.17
2018-05-16T19:10:17.594Z,100398.69
2018-05-16T19:12:45.991Z,100394.08
2018-05-16T19:15:14.397Z,100394.66
2018-05-16T19:17:42.778Z,100397.55
2018-05-16T19:20:11.283Z,100400.16
2018-05-16T19:22:40.433Z,100403.25
2018-05-16T19:25:09.720Z,100408.20
2018-05-16T19:27:38.482Z,100405.62
2018-05-16T19:30:08.061Z,100403.06
2018-05-16T19:32:37.347Z,100408.34
2018-05-16T19:35:05.739Z,100408.94
2018-05-16T19:37:35.622Z,100415.81
2018-05-16T19:40:05.294Z,100418.70
2018-05-16T19:42:33.669Z,100416.11
2018-05-16T19:45:02.063Z,100417.66
2018-05-16T19:47:30.443Z,100412.82
2018-05-16T19:49:58.829Z,100408.25
2018-05-16T19:52:27.231Z,100408.31
2018-05-16T19:54:55.625Z,100408.28
2018-05-16T19:57:24.035Z,100409.61
2018-05-16T19:59:53.754Z,100404.62
2018-05-16T20:02:22.105Z,100401.61
2018-05-16T20:04:52.372Z,100405.26
2018-05-16T20:07:20.717Z,100402.91
2018-05-16T20:09:49.147Z,100405.98
2018-05-16T20:12:17.495Z,100412.41
2018-05-16T20:14:45.894Z,100406.03
2018-05-16T20:17:14.299Z,100408.51
2018-05-16T20:19:42.699Z,100413.97
2018-05-16T20:22:11.818Z,100417.33
2018-05-16T20:24:40.353Z,100408.30
2018-05-16T20:27:08.759Z,100409.19
2018-05-16T20:29:43.351Z,100412.58
2018-05-16T20:32:11.869Z,100411.71
2018-05-16T20:34:40.263Z,100412.94
2018-05-16T20:37:08.619Z,100406.69
2018-05-16T20:39:37.755Z,100409.38
2018-05-16T20:42:06.110Z,100407.15
2018-05-16T20:44:34.455Z,100400.93
2018-05-16T20:47:03.605Z,100414.21
2018-05-16T20:49:32.019Z,100410.48
2018-05-16T20:52:01.024Z,100412.25
2018-05-16T20:54:30.380Z,100413.13
2018-05-16T20:56:58.744Z,100415.64
2018-05-16T20:59:27.110Z,100420.85
2018-05-16T21:01:55.471Z,100419.84
2018-05-16T21:04:23.854Z,100419.98
2018-05-16T21:06:52.224Z,100422.70
2018-05-16T21:09:27.180Z,100423.69
2018-05-16T21:11:55.574Z,100415.27
2018-05-16T21:14:24.704Z,100415.34
2018-05-16T21:16:53.084Z,100412.14
2018-05-16T21:19:21.542Z,100413.73
2018-05-16T21:21:49.878Z,100407.13
2018-05-16T21:24:19.014Z,100405.77
2018-05-16T21:26:47.375Z,100405.02
2018-05-16T21:29:15.732Z,100407.71
2018-05-16T21:31:45.234Z,100410.20
2018-05-16T21:34:14.413Z,100408.49
2018-05-16T21:36:43.556Z,100411.97
2018-05-16T21:39:11.934Z,100411.83
2018-05-16T21:41:40.374Z,100414.75
2018-05-16T21:44:09.518Z,100417.65
2018-05-16T21:46:37.845Z,100410.26
2018-05-16T21:49:07.364Z,100415.15
2018-05-16T21:51:35.742Z,100405.45
2018-05-16T21:54:04.207Z,100402.02
2018-05-16T21:56:33.301Z,100402.19
2018-05-16T21:59:01.687Z,100405.44
2018-05-16T22:01:30.805Z,100405.38
2018-05-16T22:03:59.660Z,100406.73
2018-05-16T22:06:28.350Z,100400.59
2018-05-16T22:09:01.390Z,100403.12
2018-05-16T22:11:30.366Z,100400.95
2018-05-16T22:13:59.591Z,100398.20
2018-05-16T22:16:28.982Z,100397.44
2018-05-16T22:18:58.523Z,100399.99
2018-05-16T22:21:28.597Z,100400.56
2018-05-16T22:23:57.043Z,100390.58
2018-05-16T22:26:26.482Z,100387.98
2018-05-16T22:28:57.747Z,100387.14
2018-05-16T22:31:32.466Z,100388.03
2018-05-16T22:34:07.247Z,100380.63
2018-05-16T22:36:42.151Z,100382.45
2018-05-16T22:39:16.828Z,100389.63
2018-05-16T22:41:51.376Z,100393.70
2018-05-16T22:44:25.314Z,100393.70
2018-05-16T22:46:53.754Z,100391.06
2018-05-16T22:49:22.119Z,100388.52
2018-05-16T22:51:51.494Z,100386.61
2018-05-16T22:54:23.102Z,100385.77
2018-05-16T22:56:51.486Z,100386.17
2018-05-16T22:59:22.937Z,100377.81
2018-05-16T23:01:51.759Z,100381.14
2018-05-16T23:04:20.884Z,100373.96
2018-05-16T23:06:49.653Z,100374.98
2018-05-16T23:12:20.239Z,100366.14
2018-05-16T23:14:50.384Z,100362.14
2018-05-16T23:17:21.692Z,100356.20
2018-05-16T23:19:53.826Z,100357.83
2018-05-16T23:22:23.122Z,100352.50
2018-05-16T23:24:55.975Z,100354.67
2018-05-16T23:27:25.655Z,100356.44
2018-05-16T23:29:54.034Z,100356.14
2018-05-16T23:32:24.727Z,100354.34
2018-05-16T23:34:54.218Z,100353.59
2018-05-16T23:37:22.576Z,100349.77
2018-05-16T23:39:50.929Z,100338.80
2018-05-16T23:42:22.928Z,100348.98
2018-05-16T23:44:51.493Z,100352.16
2018-05-16T23:47:20.169Z,100351.34
2018-05-16T23:52:55.427Z,100345.20
2018-05-16T23:55:29.218Z,100349.14
2018-05-16T23:58:01.952Z,100345.20
